Flight Track Log - Related Links

Times and Time Zones

All times are in EDT time to prevent confusion due to time zone crossing. See the FSR103 flight status page for this flight to view local times or setup timezone preferences in your user account.

Time Position Orientation Groundspeed Altitude Reporting Facility
EDT Latitude Longitude Course Direction KTS MPH feet Rate Location/Type
Tue 08:32:55 PM 40.8167 -74.1167 55° Northeast 190 219 1,500  Level New York TRACON
Tue 08:33:55 PM 40.8167 -74.2000 270° West 239 275 3,600 2,200 Climbing New York TRACON
Tue 08:34:55 PM 40.8667 -74.2500 323° Northwest 260 299 5,900 1,200 Climbing New York TRACON
Tue 08:35:55 PM 40.9333 -74.2167 21° North 272 313 6,000 50 Climbing New York TRACON
Tue 08:36:55 PM 41.0000 -74.1833 21° North 271 312 6,000  Level New York TRACON
Tue 08:37:55 PM 41.0833 -74.1667 North 268 308 6,000 1,346 Level New York TRACON
Tue 08:38:00 PM 41.1550 -73.4694 55° Northeast  Level Estimated
Tue 08:39:31 PM 41.1692 -74.0892 34° Northeast 286 329 9,500  Level Boston Center
Tue 08:40:31 PM 41.2003 -73.9519 73° East 314 361 12,100 2,500 Climbing Boston Center
Tue 08:41:31 PM 41.2311 -73.8203 73° East 383 441 14,500 1,500 Climbing Boston Center
Tue 08:42:31 PM 41.2686 -73.6525 73° East 424 488 15,100 300 Climbing Boston Center
Tue 08:43:31 PM 41.2992 -73.5147 74° East 431 496 15,100 -50 Level Boston Center
Tue 08:44:31 PM 41.3358 -73.3469 74° East 431 496 15,000  Descending Boston Center
Tue 08:45:31 PM 41.3661 -73.2117 73° East 426 490 15,100 50 Climbing Boston Center
Tue 08:46:31 PM 41.4006 -73.0406 75° East 426 490 15,100  Level Boston Center
Tue 08:47:31 PM 41.4283 -72.9081 74° East 426 490 15,100  Level Boston Center
Tue 08:48:31 PM 41.4622 -72.7392 75° East 421 484 15,100  Level Boston Center
Tue 08:49:31 PM 41.4917 -72.6008 74° East 421 484 15,100  Level Boston Center
Tue 08:50:31 PM 41.5250 -72.4344 75° East 421 484 15,100  Level Boston Center
Tue 08:51:31 PM 41.5542 -72.2986 74° East 416 479 15,100 -450 Level Boston Center
Tue 08:52:31 PM 41.5872 -72.1292 75° East 411 473 14,200 -1,400 Descending Boston Center
Tue 08:53:31 PM 41.6117 -72.0069 75° East 392 451 12,300 -1,050 Descending Boston Center
Tue 08:54:31 PM 41.6403 -71.8622 75° East 373 429 12,100 -91 Descending Boston Center
Tue 08:55:43 PM 41.6706 -71.7064 75° East 355 409 12,100 -91 Level Boston Center
Tue 08:56:43 PM 41.6928 -71.5950 75° East 350 403 11,900 -500 Descending Boston Center
Tue 08:57:43 PM 41.7208 -71.4556 75° East 355 409 11,100 -400 Descending Boston Center
Tue 08:58:43 PM 41.7575 -71.3519 65° Northeast 344 396 11,100  Level Boston Center
Tue 08:59:43 PM 41.8083 -71.2342 60° Northeast 337 388 11,100  Level Boston Center
Tue 09:00:43 PM 41.8531 -71.1300 60° Northeast 347 399 11,100 -128 Level Boston Center
Tue 09:01:17 PM 41.8833 -71.0500 63° Northeast 353 406 10,900 -128 Descending KA90
Tue 09:02:17 PM 41.9333 -70.9333 60° Northeast 347 399 10,900 -100 Level KA90
Tue 09:03:17 PM 41.9833 -70.8167 60° Northeast 354 407 10,700 -850 Descending KA90
Tue 09:04:17 PM 42.0333 -70.7167 56° Northeast 315 362 9,200 -1,684 Descending KA90
Tue 09:05:11 PM 42.0833 -70.6500 45° Northeast 309 356 7,500 -1,814 Descending KA90
Tue 09:05:43 PM 42.1189 -70.6181 34° Northeast 306 352 6,600 -1,696 Descending Boston Center
Tue 09:06:43 PM 42.1981 -70.6072 North 274 315 4,900 -1,350 Descending Boston Center
Tue 09:07:43 PM 42.2711 -70.6247 350° North 260 299 3,900 -1,000 Descending Boston Center
Tue 09:08:43 PM 42.3383 -70.6536 342° North 249 287 2,900 -500 Descending Boston Center
Tue 09:09:43 PM 42.3908 -70.6775 341° North 225 259 2,900  Level Boston Center
Tue 09:10:43 PM 42.4064 -70.7361 290° West 159 183 2,900 -50 Level Boston Center
Tue 09:11:43 PM 42.3989 -70.7925 260° West 138 159 2,800 -535 Descending Boston Center
Tue 09:14:05 PM 42.3667 -70.9167 251° West 121 139 1,100 -683 Descending KA90
Tue 09:15:05 PM 42.3667 -70.9500 270° West 120 138 500 -600 Descending KA90
Tue 09:17:00 PM 42.3500 -71.0000 North  Level FlightAware Approximate

Login

Don't have an account? Register now (free) for customized features, flight alerts, and more!